Time;durP1;ratioP1;P1;durP2;ratioP2;P2;SDS_P1;SDS_P2;PMS_P1;PMS_P2;Temp;Humidity;BMP_temperature;BMP_pressure;BME280_temperature;BME280_humidity;BME280_pressure;Samples;Min_cycle;Max_cycle;Signal;HPM_P1;HPM_P2
2021/06/16 00:02:02;;;;;;;6.92;4.35;;;;;;;16.67;95.51;100281.44;1692517;83;21504;-40
2021/06/16 00:04:30;;;;;;;7.20;4.42;;;;;;;16.62;95.64;100276.90;1662682;86;20959;-38
2021/06/16 00:06:58;;;;;;;23.25;5.70;;;;;;;16.58;95.87;100261.84;1692176;83;21477;-38
2021/06/16 00:09:25;;;;;;;30.45;6.47;;;;;;;16.57;96.35;100244.91;1662839;84;21546;-39
2021/06/16 00:11:52;;;;;;;18.48;5.47;;;;;;;16.58;96.84;100236.16;1692193;83;21564;-38
2021/06/16 00:14:20;;;;;;;17.77;6.47;;;;;;;16.60;96.99;100244.33;1662906;85;21422;-39
2021/06/16 00:16:47;;;;;;;13.98;4.92;;;;;;;16.58;96.87;100263.15;1691982;83;20983;-39
2021/06/16 00:19:13;;;;;;;10.58;5.12;;;;;;;16.55;96.96;100280.28;1662729;84;21004;-40
2021/06/16 00:21:40;;;;;;;13.22;4.50;;;;;;;16.52;96.98;100290.84;1692377;83;21103;-39
2021/06/16 00:24:07;;;;;;;9.23;4.05;;;;;;;16.49;96.99;100287.06;1662824;85;21517;-39
2021/06/16 00:26:34;;;;;;;7.97;4.70;;;;;;;16.46;96.91;100279.38;1691988;83;21025;-39
2021/06/16 00:29:01;;;;;;;5.90;5.30;;;;;;;16.41;96.94;100278.27;1662603;86;21018;-39
2021/06/16 00:31:27;;;;;;;5.55;4.50;;;;;;;16.38;96.98;100271.88;1692155;84;21090;-39
2021/06/16 00:33:54;;;;;;;6.08;4.17;;;;;;;16.36;97.08;100260.66;1662611;86;21155;-39
2021/06/16 00:36:22;;;;;;;7.92;4.55;;;;;;;16.35;97.08;100260.27;1692010;83;21493;-39
2021/06/16 00:38:49;;;;;;;4.47;4.15;;;;;;;16.30;97.00;100268.34;1662645;85;20912;-39
2021/06/16 00:41:16;;;;;;;6.12;4.20;;;;;;;16.27;97.08;100276.28;1692077;83;21078;-39
2021/06/16 00:43:43;;;;;;;4.72;4.33;;;;;;;16.24;97.08;100275.13;1662919;85;21582;-39
2021/06/16 00:46:10;;;;;;;8.73;5.55;;;;;;;16.21;97.23;100271.34;1692063;84;21146;-39
2021/06/16 00:48:37;;;;;;;5.22;4.22;;;;;;;16.18;97.26;100268.88;1662722;85;21593;-38
2021/06/16 00:51:04;;;;;;;8.10;4.75;;;;;;;16.13;97.25;100278.69;1692006;83;21517;-39
2021/06/16 00:53:30;;;;;;;6.65;4.55;;;;;;;16.08;97.35;100277.13;1662863;85;21138;-39
2021/06/16 00:55:57;;;;;;;5.28;4.78;;;;;;;16.06;97.54;100276.80;1692076;83;21163;-39
2021/06/16 00:58:23;;;;;;;7.92;4.40;;;;;;;16.03;97.66;100277.77;1662999;84;21077;-39
2021/06/16 01:00:59;;;;;;;8.50;4.55;;;;;;;16.00;97.70;100273.99;1666206;84;20939;-39
2021/06/16 01:03:36;;;;;;;6.00;4.70;;;;;;;15.96;97.77;100267.69;1652962;86;21039;-39
2021/06/16 01:06:11;;;;;;;6.22;4.70;;;;;;;15.93;97.84;100260.83;1691994;83;21351;-39
2021/06/16 01:08:40;;;;;;;5.25;4.78;;;;;;;15.89;97.98;100265.80;1662697;86;21034;-39
2021/06/16 01:11:09;;;;;;;7.65;4.70;;;;;;;15.86;98.08;100258.08;1666278;84;21156;-39
2021/06/16 01:13:54;;;;;;;5.60;5.10;;;;;;;15.81;98.09;100266.09;1662814;85;21858;-39
2021/06/16 01:16:44;;;;;;;5.85;5.35;;;;;;;15.79;98.15;100264.01;1692004;84;20995;-39
2021/06/16 01:19:41;;;;;;;14.30;5.17;;;;;;;15.73;98.31;100259.90;1662469;85;21077;-38
2021/06/16 01:22:06;;;;;;;8.40;5.85;;;;;;;15.72;98.51;100266.03;1691515;83;20986;-39
2021/06/16 01:24:32;;;;;;;6.65;5.75;;;;;;;15.70;98.67;100265.25;1662683;84;21589;-39
2021/06/16 01:26:59;;;;;;;8.68;5.40;;;;;;;15.68;98.77;100261.86;1692031;83;21540;-39
2021/06/16 01:29:32;;;;;;;7.97;4.87;;;;;;;15.66;98.82;100255.42;1656228;84;20960;-39
2021/06/16 01:32:00;;;;;;;6.55;5.10;;;;;;;15.66;98.95;100260.64;1705803;84;20905;-39
2021/06/16 01:34:26;;;;;;;7.08;4.83;;;;;;;15.69;99.23;100264.03;1705915;84;21467;-39
2021/06/16 01:36:56;;;;;;;9.45;5.37;;;;;;;15.72;99.32;100263.89;1705760;84;21330;-39
2021/06/16 01:39:26;;;;;;;5.62;5.10;;;;;;;15.73;99.42;100256.45;1705730;84;21007;-39
2021/06/16 01:41:55;;;;;;;7.35;5.28;;;;;;;15.75;99.42;100254.63;1705582;82;21365;-40
2021/06/16 01:44:21;;;;;;;7.47;5.25;;;;;;;15.78;99.59;100261.84;1706170;83;21009;-39
2021/06/16 01:46:51;;;;;;;5.62;5.03;;;;;;;15.83;99.80;100254.30;1705764;84;21000;-39
2021/06/16 01:49:20;;;;;;;7.17;4.90;;;;;;;15.89;99.98;100257.97;1706028;84;21754;-39
2021/06/16 01:51:47;;;;;;;5.67;5.17;;;;;;;15.92;100.00;100261.30;1705691;84;21028;-39
2021/06/16 01:54:14;;;;;;;5.20;4.72;;;;;;;15.96;99.93;100261.16;1705993;84;21510;-39
2021/06/16 01:56:40;;;;;;;5.85;4.87;;;;;;;15.97;99.89;100256.33;1706032;84;21012;-39
2021/06/16 01:59:07;;;;;;;7.05;4.97;;;;;;;15.98;99.86;100260.16;1706082;84;21015;-39
2021/06/16 02:01:35;;;;;;;8.78;5.50;;;;;;;16.01;99.89;100260.02;1705793;84;21116;-39
2021/06/16 02:04:01;;;;;;;5.70;5.17;;;;;;;16.05;100.00;100261.61;1705773;84;20976;-39
2021/06/16 02:06:37;;;;;;;6.92;4.85;;;;;;;16.12;100.00;100263.94;1685657;84;21527;-38
2021/06/16 02:09:05;;;;;;;6.65;5.83;;;;;;;16.17;100.00;100260.22;1705965;84;21015;-39
2021/06/16 02:11:32;;;;;;;12.23;6.15;;;;;;;16.22;100.00;100263.90;1705845;84;20980;-39
2021/06/16 02:14:00;;;;;;;8.25;6.50;;;;;;;16.27;100.00;100261.92;1706163;84;21554;-39
2021/06/16 02:16:35;;;;;;;17.10;6.40;;;;;;;16.33;100.00;100264.72;1705729;84;20902;-39
2021/06/16 02:19:12;;;;;;;11.38;6.95;;;;;;;16.38;100.00;100269.27;1705919;84;20881;-39
2021/06/16 02:21:39;;;;;;;10.32;6.97;;;;;;;16.41;100.00;100258.68;1705344;84;20937;-39
2021/06/16 02:24:09;;;;;;;11.80;6.37;;;;;;;16.47;100.00;100256.25;1706151;84;20992;-39
2021/06/16 02:26:36;;;;;;;17.87;6.67;;;;;;;16.51;100.00;100256.05;1705655;83;21212;-39
2021/06/16 02:29:08;;;;;;;14.53;6.45;;;;;;;16.56;100.00;100263.69;1705629;83;20980;-39
2021/06/16 02:31:35;;;;;;;13.95;7.20;;;;;;;16.60;100.00;100265.23;1705736;84;20932;-39
2021/06/16 02:34:01;;;;;;;13.58;7.10;;;;;;;16.65;100.00;100261.07;1705858;84;20981;-39
2021/06/16 02:36:29;;;;;;;10.40;6.72;;;;;;;16.70;100.00;100258.25;1705931;84;21447;-39
2021/06/16 02:38:58;;;;;;;15.40;6.78;;;;;;;16.77;100.00;100259.65;1705805;84;21129;-39
2021/06/16 02:41:25;;;;;;;13.83;7.05;;;;;;;16.81;99.93;100250.29;1704683;84;20988;-39
2021/06/16 02:45:27;;;;;;;14.68;7.40;;;;;;;16.90;99.65;100252.92;1797699;79;22128;-38
2021/06/16 02:47:55;;;;;;;11.05;6.70;;;;;;;16.89;99.56;100260.83;1757318;81;20937;-39
2021/06/16 02:50:27;;;;;;;15.60;7.03;;;;;;;16.91;99.43;100259.84;1757439;81;21150;-39
2021/06/16 02:52:57;;;;;;;11.18;7.15;;;;;;;16.93;99.35;100255.39;1757410;81;20983;-38
2021/06/16 02:55:24;;;;;;;9.08;6.58;;;;;;;16.97;99.20;100263.08;1757420;80;21545;-38
2021/06/16 02:57:53;;;;;;;14.10;6.92;;;;;;;16.99;99.14;100261.27;1723954;83;21486;-39
2021/06/16 03:00:20;;;;;;;16.93;6.85;;;;;;;17.02;99.06;100267.20;1721996;83;20963;-38
2021/06/16 03:02:48;;;;;;;11.05;6.60;;;;;;;17.08;98.95;100267.37;1697924;84;22043;-38
2021/06/16 03:05:20;;;;;;;13.68;6.05;;;;;;;17.13;98.84;100265.83;1698026;84;21046;-38
2021/06/16 03:07:48;;;;;;;12.53;6.12;;;;;;;17.18;98.82;100269.91;1697692;84;21054;-39
2021/06/16 03:10:17;;;;;;;13.45;6.60;;;;;;;17.23;98.77;100277.06;1689834;84;21541;-39
2021/06/16 03:12:46;;;;;;;7.37;5.58;;;;;;;17.27;98.66;100272.55;1698000;84;21027;-39
2021/06/16 03:15:15;;;;;;;9.65;6.15;;;;;;;17.32;98.61;100269.23;1670802;84;20952;-39
2021/06/16 03:17:42;;;;;;;6.50;5.90;;;;;;;17.35;98.44;100271.69;1697761;84;21054;-39
2021/06/16 03:20:11;;;;;;;10.40;5.72;;;;;;;17.39;98.38;100268.47;1698137;84;21051;-39
2021/06/16 03:22:38;;;;;;;8.23;6.55;;;;;;;17.47;98.37;100276.77;1697924;84;21083;-39
2021/06/16 03:25:06;;;;;;;6.10;5.55;;;;;;;17.52;98.06;100283.92;1697800;84;20925;-39
2021/06/16 03:27:33;;;;;;;9.98;6.35;;;;;;;17.57;97.88;100287.63;1697872;84;21872;-39
2021/06/16 03:29:59;;;;;;;6.17;5.58;;;;;;;17.63;97.71;100285.17;1697897;84;20999;-39
2021/06/16 03:32:27;;;;;;;9.68;5.17;;;;;;;17.66;97.41;100285.84;1715889;83;20971;-39
2021/06/16 03:34:54;;;;;;;6.35;5.20;;;;;;;17.72;97.17;100287.78;1708370;84;21050;-39
2021/06/16 03:37:20;;;;;;;5.85;5.03;;;;;;;17.76;96.94;100294.55;1708484;84;21539;-39
2021/06/16 03:39:51;;;;;;;7.80;5.33;;;;;;;17.79;96.51;100295.70;1708505;84;21910;-39
2021/06/16 03:42:18;;;;;;;9.98;5.08;;;;;;;17.80;96.18;100298.70;1708658;84;20963;-39
2021/06/16 03:44:46;;;;;;;5.05;4.50;;;;;;;17.83;95.89;100290.69;1700723;83;21007;-39
2021/06/16 03:47:12;;;;;;;7.75;4.85;;;;;;;17.84;95.50;100293.69;1666030;84;21525;-39
2021/06/16 03:49:39;;;;;;;6.85;4.35;;;;;;;17.83;95.06;100289.86;1695905;84;21003;-39
2021/06/16 03:52:07;;;;;;;7.00;4.15;;;;;;;17.84;94.69;100287.62;1695845;84;21055;-39
2021/06/16 03:54:35;;;;;;;9.93;5.05;;;;;;;17.83;94.35;100272.36;1695997;84;21510;-39
2021/06/16 03:57:01;;;;;;;8.20;4.55;;;;;;;17.84;94.08;100282.38;1695279;84;21000;-39
2021/06/16 03:59:28;;;;;;;4.72;4.10;;;;;;;17.83;93.42;100272.84;1695328;84;20977;-39
2021/06/16 04:01:55;;;;;;;4.10;3.80;;;;;;;17.84;93.29;100277.15;1695376;84;20940;-39
2021/06/16 04:04:23;;;;;;;5.00;4.05;;;;;;;17.85;93.22;100279.67;1695470;84;22156;-39
2021/06/16 04:06:49;;;;;;;5.80;3.80;;;;;;;17.89;93.10;100279.06;1695259;84;21008;-39
2021/06/16 04:09:16;;;;;;;5.65;3.50;;;;;;;17.89;92.82;100286.91;1695378;84;20932;-39
2021/06/16 04:11:43;;;;;;;7.53;3.67;;;;;;;17.91;92.60;100288.98;1695313;84;21055;-39
2021/06/16 04:14:10;;;;;;;5.42;3.50;;;;;;;17.92;92.40;100293.30;1695371;84;21637;-39
2021/06/16 04:16:36;;;;;;;8.25;3.85;;;;;;;17.93;92.43;100298.44;1695403;84;22008;-39
2021/06/16 04:19:04;;;;;;;3.75;3.50;;;;;;;17.96;92.32;100297.44;1665404;84;21075;-39
2021/06/16 04:21:31;;;;;;;7.35;3.77;;;;;;;17.99;92.38;100302.99;1664896;84;20980;-39
2021/06/16 04:23:58;;;;;;;5.35;3.60;;;;;;;18.02;92.27;100306.31;1695312;83;21011;-39
2021/06/16 04:26:24;;;;;;;7.58;3.70;;;;;;;18.04;92.14;100317.55;1695384;84;21059;-39
2021/06/16 04:28:51;;;;;;;4.45;3.60;;;;;;;18.06;92.21;100317.03;1695584;84;21824;-39
2021/06/16 04:31:17;;;;;;;7.00;3.90;;;;;;;18.09;92.20;100320.80;1695545;83;21545;-40
2021/06/16 04:33:44;;;;;;;15.88;3.75;;;;;;;18.13;92.09;100316.70;1695237;84;21537;-39
2021/06/16 04:36:10;;;;;;;6.78;3.58;;;;;;;18.12;92.00;100317.64;1695505;84;20996;-39
2021/06/16 04:38:37;;;;;;;3.87;3.50;;;;;;;18.15;91.98;100317.47;1695290;84;21072;-39
2021/06/16 04:41:04;;;;;;;14.23;3.90;;;;;;;18.15;91.95;100318.78;1695258;84;21070;-39
2021/06/16 04:43:30;;;;;;;3.80;3.10;;;;;;;18.15;91.62;100310.44;1695562;83;21007;-39
2021/06/16 04:45:56;;;;;;;3.95;3.50;;;;;;;18.14;91.58;100306.61;1695425;83;21059;-39
2021/06/16 04:48:23;;;;;;;6.15;3.55;;;;;;;18.14;91.58;100304.83;1695326;83;20965;-39
2021/06/16 04:50:49;;;;;;;8.55;3.10;;;;;;;18.16;91.58;100298.20;1695377;84;21040;-39
2021/06/16 04:53:16;;;;;;;12.95;4.60;;;;;;;18.19;91.53;100300.66;1695473;84;21218;-39
2021/06/16 04:55:43;;;;;;;9.43;3.72;;;;;;;18.20;91.44;100297.98;1695279;84;21474;-39
2021/06/16 04:58:09;;;;;;;5.55;3.90;;;;;;;18.22;91.38;100292.64;1695284;84;21039;-39
2021/06/16 05:00:36;;;;;;;4.80;4.33;;;;;;;18.24;91.23;100294.71;1695134;84;20960;-39
2021/06/16 05:03:03;;;;;;;9.35;3.50;;;;;;;18.23;91.24;100296.95;1695312;84;20936;-39
2021/06/16 05:05:30;;;;;;;9.55;3.52;;;;;;;18.23;91.27;100303.05;1695316;84;21138;-39
2021/06/16 05:07:56;;;;;;;4.83;3.35;;;;;;;18.26;91.12;100307.73;1695224;83;21565;-39
2021/06/16 05:10:22;;;;;;;3.35;3.12;;;;;;;18.26;91.00;100311.67;1695576;84;21540;-39
2021/06/16 05:12:49;;;;;;;7.30;3.52;;;;;;;18.26;91.01;100322.15;1695396;84;21004;-39
2021/06/16 05:15:16;;;;;;;6.55;3.47;;;;;;;18.28;91.00;100327.67;1665432;84;21007;-39
2021/06/16 05:17:43;;;;;;;10.28;3.60;;;;;;;18.29;90.88;100331.98;1695312;84;21152;-39
2021/06/16 05:20:12;;;;;;;3.72;3.42;;;;;;;18.28;90.85;100334.22;1695157;84;20999;-39
2021/06/16 05:22:39;;;;;;;4.83;3.02;;;;;;;18.32;90.85;100340.16;1695467;84;20932;-38
2021/06/16 05:25:08;;;;;;;4.53;3.87;;;;;;;18.33;90.98;100337.91;1695292;84;20957;-39
2021/06/16 05:27:35;;;;;;;5.28;3.05;;;;;;;18.38;91.01;100336.75;1695294;84;21016;-39
2021/06/16 05:30:03;;;;;;;3.22;3.00;;;;;;;18.44;91.07;100333.42;1695632;84;21103;-39
2021/06/16 05:32:30;;;;;;;3.00;2.90;;;;;;;18.52;91.00;100331.22;1695405;84;20963;-39
2021/06/16 05:34:56;;;;;;;7.30;3.37;;;;;;;18.59;91.02;100327.36;1695223;84;21011;-39
2021/06/16 05:37:23;;;;;;;5.85;3.10;;;;;;;18.68;90.76;100325.98;1695514;84;21008;-39
2021/06/16 05:39:50;;;;;;;5.00;3.12;;;;;;;18.74;90.62;100325.67;1695305;83;20995;-39
2021/06/16 05:42:16;;;;;;;4.58;3.15;;;;;;;18.83;90.36;100333.51;1695172;83;21537;-39
2021/06/16 05:44:43;;;;;;;4.30;2.85;;;;;;;18.89;90.12;100346.27;1695348;84;21556;-39
2021/06/16 05:47:09;;;;;;;6.83;3.08;;;;;;;18.96;89.76;100348.09;1699702;83;21502;-39
2021/06/16 05:49:36;;;;;;;6.03;2.80;;;;;;;19.05;89.07;100341.50;1710317;83;20923;-39
2021/06/16 05:52:04;;;;;;;9.88;2.77;;;;;;;19.13;89.16;100341.94;1700825;84;20976;-39
2021/06/16 05:54:31;;;;;;;3.02;2.80;;;;;;;19.27;88.43;100340.30;1659727;85;21813;-39
2021/06/16 05:56:58;;;;;;;6.78;3.20;;;;;;;19.36;87.99;100345.87;1710373;82;21556;-39
2021/06/16 05:59:25;;;;;;;3.30;3.05;;;;;;;19.53;87.88;100348.00;1700665;84;21189;-39
2021/06/16 06:01:51;;;;;;;6.08;2.80;;;;;;;19.73;86.99;100352.08;1710580;82;20965;-38
2021/06/16 06:04:18;;;;;;;2.75;2.55;;;;;;;19.98;86.64;100353.28;1700802;84;20968;-38
2021/06/16 06:06:44;;;;;;;2.42;2.25;;;;;;;20.26;85.74;100354.25;1710510;83;21117;-38
2021/06/16 06:09:11;;;;;;;11.97;2.50;;;;;;;20.61;84.94;100353.88;1700723;84;21522;-38
2021/06/16 06:11:37;;;;;;;5.35;2.17;;;;;;;21.00;83.49;100353.25;1710525;83;21536;-38
2021/06/16 06:14:05;;;;;;;8.03;2.27;;;;;;;21.36;81.49;100357.09;1700721;84;20924;-39
2021/06/16 06:16:31;;;;;;;5.75;2.00;;;;;;;21.77;79.76;100357.95;1710444;83;21014;-40
2021/06/16 06:18:58;;;;;;;3.77;2.15;;;;;;;22.32;76.34;100358.58;1700702;84;21073;-39
2021/06/16 06:21:30;;;;;;;4.83;2.22;;;;;;;22.74;75.13;100358.81;1710435;83;20975;-40
2021/06/16 06:23:53;;;;;;;6.28;2.05;;;;;;;22.98;73.47;100361.96;1700229;83;21020;-39
2021/06/16 06:26:19;;;;;;;2.25;2.15;;;;;;;23.10;70.63;100363.69;1710342;82;21000;-39
2021/06/16 06:28:46;;;;;;;3.62;2.10;;;;;;;23.23;71.17;100366.27;1700949;84;20996;-39
2021/06/16 06:31:12;;;;;;;2.33;1.90;;;;;;;23.46;70.55;100356.70;1710405;82;21145;-39
2021/06/16 06:33:38;;;;;;;2.55;1.90;;;;;;;23.78;69.34;100358.71;1700653;84;20972;-39
2021/06/16 06:36:05;;;;;;;2.30;1.60;;;;;;;24.05;66.79;100353.62;1710504;83;21493;-39
2021/06/16 06:38:32;;;;;;;2.15;1.65;;;;;;;24.17;67.08;100354.97;1700731;84;21475;-39
2021/06/16 06:40:59;;;;;;;2.00;1.90;;;;;;;24.16;64.55;100355.94;1710470;83;21507;-40
2021/06/16 06:43:25;;;;;;;2.90;1.57;;;;;;;23.94;64.34;100357.55;1700729;84;21529;-40
2021/06/16 06:45:52;;;;;;;1.60;1.50;;;;;;;23.71;64.72;100361.47;1709408;83;20997;-39
2021/06/16 06:48:19;;;;;;;2.05;1.70;;;;;;;23.61;65.17;100371.02;1695217;84;21035;-39
2021/06/16 06:50:46;;;;;;;4.08;1.45;;;;;;;23.48;65.38;100371.09;1695265;84;20956;-39
2021/06/16 06:53:14;;;;;;;1.80;1.50;;;;;;;23.23;64.99;100371.09;1695444;84;21052;-39
2021/06/16 06:55:42;;;;;;;2.05;1.30;;;;;;;23.18;65.86;100378.52;1695124;84;21087;-39
2021/06/16 06:58:09;;;;;;;3.60;2.00;;;;;;;23.20;65.65;100379.70;1695080;83;20965;-39
2021/06/16 07:00:36;;;;;;;4.17;1.57;;;;;;;23.19;65.69;100373.59;1695216;83;20976;-39
2021/06/16 07:03:02;;;;;;;2.10;1.50;;;;;;;23.20;65.37;100372.64;1695246;84;21019;-39
2021/06/16 07:05:28;;;;;;;2.62;1.62;;;;;;;22.98;65.90;100372.02;1695152;84;21062;-39
2021/06/16 07:07:56;;;;;;;8.10;2.00;;;;;;;22.80;66.28;100378.15;1695229;84;21146;-39
2021/06/16 07:10:23;;;;;;;4.85;2.10;;;;;;;22.61;68.66;100388.71;1695248;83;21572;-41
2021/06/16 07:12:49;;;;;;;10.20;2.20;;;;;;;22.34;70.94;100392.27;1695285;84;21059;-41
2021/06/16 07:15:16;;;;;;;2.87;2.33;;;;;;;22.06;72.23;100393.33;1695158;84;20960;-40
2021/06/16 07:17:43;;;;;;;2.95;2.75;;;;;;;21.62;74.14;100396.66;1695168;84;20980;-40
2021/06/16 07:20:13;;;;;;;4.90;2.75;;;;;;;21.23;75.84;100397.36;1695204;83;21175;-41
2021/06/16 07:22:39;;;;;;;3.00;2.35;;;;;;;20.96;77.68;100391.59;1695130;84;20999;-41
2021/06/16 07:25:07;;;;;;;5.08;2.20;;;;;;;20.73;78.08;100397.42;1695450;84;20997;-41
2021/06/16 07:27:34;;;;;;;2.02;1.80;;;;;;;20.56;79.01;100392.73;1695173;84;20940;-40
2021/06/16 07:30:00;;;;;;;2.00;1.90;;;;;;;20.48;80.75;100392.36;1695508;84;20999;-41
2021/06/16 07:32:27;;;;;;;3.98;2.02;;;;;;;20.55;82.03;100393.67;1695362;83;20961;-40
2021/06/16 07:34:53;;;;;;;2.70;2.47;;;;;;;20.68;82.52;100386.73;1695304;84;21068;-40
2021/06/16 07:37:19;;;;;;;8.45;2.30;;;;;;;20.86;82.88;100383.92;1695375;84;21643;-41
2021/06/16 07:39:46;;;;;;;2.20;1.82;;;;;;;21.05;82.43;100387.55;1695320;84;21482;-41
2021/06/16 07:42:13;;;;;;;3.47;1.65;;;;;;;21.24;81.05;100389.83;1695408;84;21008;-41
2021/06/16 07:44:39;;;;;;;3.95;1.55;;;;;;;21.42;79.83;100391.36;1695333;84;21138;-39
2021/06/16 07:47:08;;;;;;;2.25;2.05;;;;;;;21.66;79.49;100388.46;1695395;83;20988;-39
2021/06/16 07:49:34;;;;;;;2.35;1.82;;;;;;;21.95;78.55;100387.47;1695418;84;21016;-40
2021/06/16 07:52:00;;;;;;;3.42;1.65;;;;;;;22.25;75.93;100383.23;1665451;84;20965;-40
2021/06/16 07:54:27;;;;;;;2.35;1.35;;;;;;;22.60;75.33;100384.36;1695339;84;20957;-39
2021/06/16 07:56:53;;;;;;;1.62;1.10;;;;;;;22.98;71.91;100371.20;1695575;84;21141;-39
2021/06/16 07:59:20;;;;;;;3.92;1.22;;;;;;;23.21;69.91;100376.97;1695368;84;21684;-40
2021/06/16 08:01:47;;;;;;;4.35;1.80;;;;;;;23.38;66.10;100377.56;1695630;84;21039;-40
2021/06/16 08:04:13;;;;;;;8.95;2.12;;;;;;;23.51;63.90;100384.10;1695252;84;20968;-39
2021/06/16 08:06:40;;;;;;;10.58;2.27;;;;;;;23.65;65.00;100397.10;1695306;84;21046;-40
2021/06/16 08:09:07;;;;;;;8.58;1.95;;;;;;;23.88;64.35;100391.06;1695228;84;21091;-41
2021/06/16 08:11:33;;;;;;;3.67;1.70;;;;;;;24.13;63.09;100402.44;1695180;83;20956;-40
2021/06/16 08:14:01;;;;;;;7.67;1.55;;;;;;;24.20;61.60;100395.21;1695426;84;20976;-40
2021/06/16 08:16:27;;;;;;;1.07;0.98;;;;;;;24.09;60.78;100397.85;1695329;84;21047;-40
2021/06/16 08:18:54;;;;;;;2.90;0.90;;;;;;;23.96;60.98;100400.56;1695482;84;21047;-39
2021/06/16 08:21:20;;;;;;;1.55;0.90;;;;;;;23.88;62.01;100396.34;1695269;84;21123;-40
2021/06/16 08:23:48;;;;;;;1.02;0.85;;;;;;;23.81;61.31;100403.39;1695263;84;21001;-40
2021/06/16 08:26:15;;;;;;;1.80;1.70;;;;;;;23.78;61.75;100408.09;1695121;83;21152;-40
2021/06/16 08:28:42;;;;;;;1.87;1.72;;;;;;;23.70;60.70;100407.34;1695316;84;20964;-40
2021/06/16 08:31:09;;;;;;;1.10;1.10;;;;;;;23.55;60.69;100408.00;1695454;84;21530;-39
2021/06/16 08:33:37;;;;;;;6.90;1.17;;;;;;;23.44;60.81;100399.55;1695204;84;21139;-40
2021/06/16 08:36:05;;;;;;;1.15;1.02;;;;;;;23.32;60.87;100408.36;1695275;84;20996;-40
2021/06/16 08:38:32;;;;;;;1.77;1.70;;;;;;;23.24;60.79;100413.70;1695298;84;20999;-39
2021/06/16 08:41:05;;;;;;;1.80;1.55;;;;;;;23.13;60.84;100405.73;1695320;84;21031;-39
2021/06/16 08:43:28;;;;;;;2.05;0.80;;;;;;;23.06;61.24;100413.70;1695113;84;20924;-40
2021/06/16 08:45:55;;;;;;;4.00;1.22;;;;;;;22.93;62.15;100409.31;1695333;84;21850;-40
2021/06/16 08:48:21;;;;;;;1.47;1.27;;;;;;;22.80;64.59;100408.49;1713106;83;21037;-41
2021/06/16 08:50:47;;;;;;;2.22;0.93;;;;;;;22.51;65.76;100413.56;1720994;82;21010;-40
2021/06/16 08:53:14;;;;;;;0.85;0.82;;;;;;;22.21;67.63;100414.67;1692010;83;21017;-40
2021/06/16 08:55:41;;;;;;;2.35;0.90;;;;;;;22.03;69.17;100410.19;1692006;83;21030;-40
2021/06/16 08:58:07;;;;;;;2.42;0.80;;;;;;;21.95;70.34;100416.45;1692336;84;21114;-40
2021/06/16 09:00:34;;;;;;;4.17;1.20;;;;;;;21.92;71.26;100412.22;1691961;83;20959;-40
2021/06/16 09:03:01;;;;;;;3.90;1.22;;;;;;;21.97;71.21;100406.66;1692156;84;21580;-40
2021/06/16 09:05:38;;;;;;;3.50;1.00;;;;;;;22.00;71.94;100410.39;1692072;84;21082;-39
2021/06/16 09:08:23;;;;;;;4.12;1.05;;;;;;;22.07;71.94;100409.52;1692380;84;20907;-40
2021/06/16 09:10:52;;;;;;;0.90;0.90;;;;;;;22.11;71.41;100416.26;1692299;83;21135;-40
2021/06/16 09:13:33;;;;;;;1.62;0.90;;;;;;;22.14;71.65;100421.81;1692046;83;21547;-40
2021/06/16 09:16:00;;;;;;;6.70;1.92;;;;;;;22.28;71.03;100420.37;1691982;84;21013;-39
2021/06/16 09:18:27;;;;;;;2.40;0.90;;;;;;;22.47;70.32;100422.61;1691952;83;21053;-40
2021/06/16 09:20:56;;;;;;;2.35;1.07;;;;;;;22.84;70.05;100415.23;1692248;83;21524;-40
2021/06/16 09:23:26;;;;;;;0.95;0.95;;;;;;;23.37;69.26;100412.36;1692295;84;21108;-39
2021/06/16 09:26:18;;;;;;;2.10;0.80;;;;;;;23.96;67.15;100404.52;1692015;84;21035;-39
2021/06/16 09:28:50;;;;;;;5.60;1.00;;;;;;;24.49;65.63;100405.82;1692373;84;20991;-39
2021/06/16 09:31:19;;;;;;;3.05;1.35;;;;;;;24.92;64.82;100410.40;1691955;84;21528;-39
2021/06/16 09:33:46;;;;;;;3.27;1.77;;;;;;;25.27;63.76;100407.66;1692238;83;20991;-40
2021/06/16 09:36:18;;;;;;;2.08;1.20;;;;;;;25.52;61.46;100399.91;1692010;84;21139;-40
2021/06/16 09:38:47;;;;;;;0.90;0.90;;;;;;;25.71;59.66;100396.56;1691583;84;21030;-39
2021/06/16 09:41:16;;;;;;;1.10;1.10;;;;;;;25.91;59.86;100403.33;1692247;84;21494;-40
2021/06/16 09:43:43;;;;;;;2.35;0.88;;;;;;;25.97;58.65;100405.45;1691894;83;20951;-39
2021/06/16 09:46:11;;;;;;;3.55;1.30;;;;;;;26.04;57.87;100395.99;1692029;83;20987;-39
2021/06/16 09:48:43;;;;;;;3.72;1.00;;;;;;;26.28;57.55;100402.03;1691902;83;21178;-39
2021/06/16 09:51:21;;;;;;;8.75;1.40;;;;;;;26.47;55.04;100403.92;1691746;84;21030;-39
2021/06/16 09:54:13;;;;;;;4.40;1.20;;;;;;;26.53;54.87;100406.89;1692067;83;21029;-39
2021/06/16 09:56:43;;;;;;;3.25;2.65;;;;;;;26.58;54.10;100409.13;1691951;83;20943;-39
2021/06/16 09:59:11;;;;;;;4.35;1.65;;;;;;;26.64;52.83;100408.58;1682958;83;21425;-40
2021/06/16 10:01:51;;;;;;;7.47;2.35;;;;;;;26.82;52.33;100412.78;1720892;82;21089;-40
2021/06/16 10:04:46;;;;;;;4.92;1.00;;;;;;;27.05;50.57;100414.39;1692000;84;20908;-40
2021/06/16 10:07:25;;;;;;;1.42;0.78;;;;;;;27.29;49.52;100407.38;1691650;84;20983;-40
2021/06/16 10:10:02;;;;;;;0.65;0.60;;;;;;;27.57;50.06;100410.68;1692059;83;20979;-41
2021/06/16 10:12:35;;;;;;;1.32;0.60;;;;;;;28.01;49.38;100415.52;1691913;84;20979;-40
2021/06/16 10:15:08;;;;;;;0.47;0.47;;;;;;;28.45;46.66;100411.02;1692005;84;21083;-41
2021/06/16 10:17:36;;;;;;;0.60;0.60;;;;;;;28.56;45.66;100394.84;1691997;84;20907;-41
2021/06/16 10:20:04;;;;;;;3.40;0.70;;;;;;;28.53;46.16;100397.30;1691986;83;21002;-41
2021/06/16 10:22:31;;;;;;;2.98;0.88;;;;;;;28.30;45.91;100399.51;1691923;84;20986;-41
2021/06/16 10:24:57;;;;;;;2.92;1.17;;;;;;;28.13;47.41;100398.42;1692153;84;20998;-41
2021/06/16 10:27:29;;;;;;;3.05;0.90;;;;;;;27.96;47.34;100403.48;1691999;84;21123;-41
2021/06/16 10:30:05;;;;;;;2.08;1.10;;;;;;;27.93;47.50;100406.95;1691897;84;21053;-41
2021/06/16 10:32:43;;;;;;;0.60;0.60;;;;;;;28.02;47.53;100400.75;1691925;84;20983;-41
2021/06/16 10:35:34;;;;;;;2.58;1.22;;;;;;;28.17;47.94;100401.67;1691855;84;20974;-40
2021/06/16 10:38:12;;;;;;;4.60;0.80;;;;;;;28.23;46.38;100407.73;1691939;83;21143;-40
2021/06/16 10:40:51;;;;;;;0.90;0.80;;;;;;;28.01;45.59;100404.40;1689552;83;21192;-41
2021/06/16 10:43:23;;;;;;;3.33;0.90;;;;;;;28.01;45.84;100400.41;1691890;83;21072;-40
2021/06/16 10:45:56;;;;;;;3.62;1.05;;;;;;;28.08;45.96;100395.36;1692163;83;21496;-39
2021/06/16 10:48:46;;;;;;;0.80;0.75;;;;;;;28.15;46.22;100394.27;1679821;83;20932;-41
2021/06/16 10:51:31;;;;;;;0.65;0.65;;;;;;;28.29;44.76;100392.98;1735166;82;20979;-40
2021/06/16 10:54:21;;;;;;;0.87;0.70;;;;;;;28.45;46.29;100381.23;1735538;82;21195;-40
2021/06/16 10:56:54;;;;;;;3.40;1.20;;;;;;;28.83;44.55;100383.88;1735058;82;20945;-40
2021/06/16 10:59:48;;;;;;;2.75;1.40;;;;;;;29.04;44.54;100384.09;1734846;82;21643;-40
2021/06/16 11:02:27;;;;;;;6.17;1.20;;;;;;;29.06;44.97;100386.11;1735361;82;20940;-40
2021/06/16 11:04:53;;;;;;;2.30;1.75;;;;;;;29.17;45.57;100383.20;1715470;82;20981;-40
2021/06/16 11:07:35;;;;;;;2.75;2.45;;;;;;;29.18;44.73;100383.58;1714560;82;21886;-40
2021/06/16 11:10:06;;;;;;;1.92;1.82;;;;;;;28.86;46.00;100375.58;1735234;82;20992;-40
2021/06/16 11:12:42;;;;;;;1.07;1.07;;;;;;;28.58;46.68;100362.27;1735534;81;21475;-40
2021/06/16 11:15:29;;;;;;;2.27;1.00;;;;;;;28.38;47.64;100369.00;1735224;82;20984;-40
2021/06/16 11:17:59;;;;;;;3.15;1.20;;;;;;;28.19;48.32;100366.45;1735641;82;20988;-39
2021/06/16 11:20:36;;;;;;;1.80;1.10;;;;;;;28.04;50.50;100368.20;1734649;82;21103;-39
2021/06/16 11:23:06;;;;;;;2.50;1.50;;;;;;;28.18;50.24;100367.44;1735521;82;21499;-40
2021/06/16 11:25:37;;;;;;;5.87;1.47;;;;;;;28.45;50.19;100363.12;1735278;81;21556;-40
2021/06/16 11:28:11;;;;;;;2.50;1.37;;;;;;;28.69;48.79;100363.88;1735440;82;20902;-40
2021/06/16 11:30:51;;;;;;;2.12;1.20;;;;;;;28.84;47.67;100360.76;1735376;82;21023;-40
2021/06/16 11:33:28;;;;;;;2.00;1.20;;;;;;;28.83;48.86;100359.91;1735650;82;21491;-40
2021/06/16 11:36:06;;;;;;;1.07;1.07;;;;;;;28.96;46.74;100356.39;1735213;82;20953;-40